Maysville, Iowa
Current Conditions -  °F | °C
As of 8:52 PM on Monday 22 Dec 2014 (Local Time) from KDVN Reporting Station
Light Rain Light Rain  
Wind Chill: 33°   Ceiling: 200
Heat Index: 39°   Visibility: 1.5mi
Dew Point: 38°   Wind: 9mph
Humidity: 96%   Direction: 100°E
Pressure: 29.52"   Gusts: NA
Location:  41.6175°N, 90.7599°W
Report Text: KDVN 230252Z AUTO 10008KT 1 1/2SM -RA BR OVC002 04/03 A2952 RMK AO2 SLP002 P0000 60001 T00390033 58012
Loading
Personal Weather Stations






























Interactive Weather Map New forecast layout! Learn more

10-Day Weather Forecast

Advertisements
Track Severe Weather on mobile